sensor_id;sensor_type;location;lat;lon;timestamp;pressure;altitude;pressure_sealevel;temperature;humidity
76728;BME280;65652;53.132;18.026;2023-08-01T00:00:08;99995.73;;;20.00;62.96
76728;BME280;65652;53.132;18.026;2023-08-01T00:02:57;99995.15;;;19.99;62.98
76728;BME280;65652;53.132;18.026;2023-08-01T00:05:24;99994.36;;;19.98;62.98
76728;BME280;65652;53.132;18.026;2023-08-01T00:07:50;99998.09;;;19.97;62.97
76728;BME280;65652;53.132;18.026;2023-08-01T00:10:16;99989.60;;;19.96;63.15
76728;BME280;65652;53.132;18.026;2023-08-01T00:12:42;99984.56;;;19.97;63.06
76728;BME280;65652;53.132;18.026;2023-08-01T00:15:09;99976.41;;;19.97;63.05
76728;BME280;65652;53.132;18.026;2023-08-01T00:17:35;99973.96;;;19.97;63.17
76728;BME280;65652;53.132;18.026;2023-08-01T00:20:02;99967.56;;;19.95;63.12
76728;BME280;65652;53.132;18.026;2023-08-01T00:22:29;99965.38;;;19.94;63.19
76728;BME280;65652;53.132;18.026;2023-08-01T00:24:55;99960.13;;;19.93;63.13
76728;BME280;65652;53.132;18.026;2023-08-01T00:27:21;99959.46;;;19.91;63.26
76728;BME280;65652;53.132;18.026;2023-08-01T00:29:47;99960.09;;;19.90;63.23
76728;BME280;65652;53.132;18.026;2023-08-01T00:32:13;99956.70;;;19.88;63.28
76728;BME280;65652;53.132;18.026;2023-08-01T00:34:39;99953.89;;;19.88;63.30
76728;BME280;65652;53.132;18.026;2023-08-01T00:37:05;99948.48;;;19.85;63.38
76728;BME280;65652;53.132;18.026;2023-08-01T00:39:32;99945.45;;;19.83;63.36
76728;BME280;65652;53.132;18.026;2023-08-01T00:41:59;99943.81;;;19.80;63.54
76728;BME280;65652;53.132;18.026;2023-08-01T00:44:25;99940.10;;;19.77;63.50
76728;BME280;65652;53.132;18.026;2023-08-01T00:46:51;99938.23;;;19.77;63.50
76728;BME280;65652;53.132;18.026;2023-08-01T00:49:17;99933.85;;;19.76;63.55
76728;BME280;65652;53.132;18.026;2023-08-01T00:51:43;99927.48;;;19.75;63.55
76728;BME280;65652;53.132;18.026;2023-08-01T00:54:10;99925.51;;;19.75;63.56
76728;BME280;65652;53.132;18.026;2023-08-01T00:56:37;99925.55;;;19.75;63.59
76728;BME280;65652;53.132;18.026;2023-08-01T00:59:05;99916.54;;;19.74;63.59
76728;BME280;65652;53.132;18.026;2023-08-01T01:01:31;99910.42;;;19.75;63.63
76728;BME280;65652;53.132;18.026;2023-08-01T01:03:57;99905.45;;;19.75;63.69
76728;BME280;65652;53.132;18.026;2023-08-01T01:06:38;99903.26;;;19.76;63.64
76728;BME280;65652;53.132;18.026;2023-08-01T01:09:39;99899.53;;;19.75;63.60
76728;BME280;65652;53.132;18.026;2023-08-01T01:12:06;99892.27;;;19.75;63.63
76728;BME280;65652;53.132;18.026;2023-08-01T01:14:33;99889.66;;;19.74;63.63
76728;BME280;65652;53.132;18.026;2023-08-01T01:16:59;99887.34;;;19.74;63.59
76728;BME280;65652;53.132;18.026;2023-08-01T01:19:25;99885.94;;;19.75;63.61
76728;BME280;65652;53.132;18.026;2023-08-01T01:21:52;99883.33;;;19.76;63.64
76728;BME280;65652;53.132;18.026;2023-08-01T01:24:21;99870.67;;;19.75;63.57
76728;BME280;65652;53.132;18.026;2023-08-01T01:26:48;99873.33;;;19.76;63.61
76728;BME280;65652;53.132;18.026;2023-08-01T01:29:15;99869.68;;;19.75;63.61
76728;BME280;65652;53.132;18.026;2023-08-01T01:31:41;99865.34;;;19.74;63.66
76728;BME280;65652;53.132;18.026;2023-08-01T01:34:09;99859.92;;;19.73;63.64
76728;BME280;65652;53.132;18.026;2023-08-01T01:36:35;99861.96;;;19.71;63.57
76728;BME280;65652;53.132;18.026;2023-08-01T01:39:01;99858.13;;;19.71;63.72
76728;BME280;65652;53.132;18.026;2023-08-01T01:41:27;99857.46;;;19.69;63.75
76728;BME280;65652;53.132;18.026;2023-08-01T01:43:53;99855.08;;;19.67;63.84
76728;BME280;65652;53.132;18.026;2023-08-01T01:46:20;99845.77;;;19.65;63.83
76728;BME280;65652;53.132;18.026;2023-08-01T01:48:46;99842.42;;;19.64;63.90
76728;BME280;65652;53.132;18.026;2023-08-01T01:51:13;99839.61;;;19.63;63.84
76728;BME280;65652;53.132;18.026;2023-08-01T01:53:39;99834.28;;;19.62;64.00
76728;BME280;65652;53.132;18.026;2023-08-01T01:56:05;99837.14;;;19.62;63.87
76728;BME280;65652;53.132;18.026;2023-08-01T01:58:31;99834.54;;;19.62;63.90
76728;BME280;65652;53.132;18.026;2023-08-01T02:00:57;99830.35;;;19.63;63.89
76728;BME280;65652;53.132;18.026;2023-08-01T02:03:23;99821.30;;;19.63;63.88
76728;BME280;65652;53.132;18.026;2023-08-01T02:05:50;99818.86;;;19.64;63.86
76728;BME280;65652;53.132;18.026;2023-08-01T02:08:17;99812.33;;;19.65;63.85
76728;BME280;65652;53.132;18.026;2023-08-01T02:10:43;99809.55;;;19.64;63.93
76728;BME280;65652;53.132;18.026;2023-08-01T02:13:09;99806.69;;;19.65;63.77
76728;BME280;65652;53.132;18.026;2023-08-01T02:15:36;99804.21;;;19.66;63.80
76728;BME280;65652;53.132;18.026;2023-08-01T02:18:03;99800.12;;;19.66;63.74
76728;BME280;65652;53.132;18.026;2023-08-01T02:20:29;99794.70;;;19.67;63.83
76728;BME280;65652;53.132;18.026;2023-08-01T02:22:55;99791.89;;;19.66;63.78
76728;BME280;65652;53.132;18.026;2023-08-01T02:25:21;99784.40;;;19.67;63.76
76728;BME280;65652;53.132;18.026;2023-08-01T02:27:47;99779.23;;;19.67;63.86
76728;BME280;65652;53.132;18.026;2023-08-01T02:30:13;99778.23;;;19.68;63.76
76728;BME280;65652;53.132;18.026;2023-08-01T02:32:39;99773.54;;;19.67;63.84
76728;BME280;65652;53.132;18.026;2023-08-01T02:35:06;99771.60;;;19.64;63.85
76728;BME280;65652;53.132;18.026;2023-08-01T02:37:32;99765.91;;;19.61;63.88
76728;BME280;65652;53.132;18.026;2023-08-01T02:39:58;99763.61;;;19.58;63.86
76728;BME280;65652;53.132;18.026;2023-08-01T02:42:24;99760.55;;;19.56;63.89
76728;BME280;65652;53.132;18.026;2023-08-01T02:44:51;99759.16;;;19.53;63.93
76728;BME280;65652;53.132;18.026;2023-08-01T02:47:17;99755.69;;;19.51;63.93
76728;BME280;65652;53.132;18.026;2023-08-01T02:49:43;99752.77;;;19.49;64.00
76728;BME280;65652;53.132;18.026;2023-08-01T02:52:09;99753.93;;;19.47;64.13
76728;BME280;65652;53.132;18.026;2023-08-01T02:54:36;99749.16;;;19.46;64.16
76728;BME280;65652;53.132;18.026;2023-08-01T02:57:02;99749.96;;;19.46;64.11
76728;BME280;65652;53.132;18.026;2023-08-01T02:59:28;99751.20;;;19.46;64.05
76728;BME280;65652;53.132;18.026;2023-08-01T03:01:55;99750.25;;;19.46;64.05
76728;BME280;65652;53.132;18.026;2023-08-01T03:04:21;99752.23;;;19.48;64.13
76728;BME280;65652;53.132;18.026;2023-08-01T03:06:47;99751.16;;;19.49;64.06
76728;BME280;65652;53.132;18.026;2023-08-01T03:09:13;99749.33;;;19.50;64.11
76728;BME280;65652;53.132;18.026;2023-08-01T03:11:39;99749.15;;;19.52;64.04
76728;BME280;65652;53.132;18.026;2023-08-01T03:14:05;99745.67;;;19.52;64.13
76728;BME280;65652;53.132;18.026;2023-08-01T03:16:32;99747.14;;;19.53;64.07
76728;BME280;65652;53.132;18.026;2023-08-01T03:18:58;99748.70;;;19.55;64.08
76728;BME280;65652;53.132;18.026;2023-08-01T03:21:33;99744.52;;;19.57;64.09
76728;BME280;65652;53.132;18.026;2023-08-01T03:24:00;99742.89;;;19.58;64.05
76728;BME280;65652;53.132;18.026;2023-08-01T03:26:27;99741.03;;;19.58;64.13
76728;BME280;65652;53.132;18.026;2023-08-01T03:28:54;99735.82;;;19.59;64.14
76728;BME280;65652;53.132;18.026;2023-08-01T03:31:24;99733.50;;;19.59;64.17
76728;BME280;65652;53.132;18.026;2023-08-01T03:33:50;99728.68;;;19.57;64.13
76728;BME280;65652;53.132;18.026;2023-08-01T03:36:16;99726.15;;;19.57;64.14
76728;BME280;65652;53.132;18.026;2023-08-01T03:38:44;99723.05;;;19.56;64.27
76728;BME280;65652;53.132;18.026;2023-08-01T03:41:10;99721.79;;;19.54;64.28
76728;BME280;65652;53.132;18.026;2023-08-01T03:43:36;99717.09;;;19.52;64.34
76728;BME280;65652;53.132;18.026;2023-08-01T03:46:02;99712.41;;;19.51;64.40
76728;BME280;65652;53.132;18.026;2023-08-01T03:48:28;99711.27;;;19.49;64.68
76728;BME280;65652;53.132;18.026;2023-08-01T03:50:55;99709.71;;;19.46;64.78
76728;BME280;65652;53.132;18.026;2023-08-01T03:53:21;99704.27;;;19.44;64.88
76728;BME280;65652;53.132;18.026;2023-08-01T03:55:47;99701.75;;;19.42;65.25
76728;BME280;65652;53.132;18.026;2023-08-01T03:58:14;99701.69;;;19.39;65.37
76728;BME280;65652;53.132;18.026;2023-08-01T04:00:40;99700.90;;;19.37;65.50
76728;BME280;65652;53.132;18.026;2023-08-01T04:03:07;99702.15;;;19.36;65.76
76728;BME280;65652;53.132;18.026;2023-08-01T04:05:33;99703.77;;;19.32;65.84
76728;BME280;65652;53.132;18.026;2023-08-01T04:07:59;99707.21;;;19.28;66.10
76728;BME280;65652;53.132;18.026;2023-08-01T04:10:25;99707.77;;;19.25;66.14
76728;BME280;65652;53.132;18.026;2023-08-01T04:12:51;99710.03;;;19.22;66.36
76728;BME280;65652;53.132;18.026;2023-08-01T04:15:18;99707.34;;;19.20;66.59
76728;BME280;65652;53.132;18.026;2023-08-01T04:17:44;99702.98;;;19.19;66.77
76728;BME280;65652;53.132;18.026;2023-08-01T04:20:10;99701.09;;;19.14;66.88
76728;BME280;65652;53.132;18.026;2023-08-01T04:22:36;99700.77;;;19.10;67.04
76728;BME280;65652;53.132;18.026;2023-08-01T04:25:03;99696.60;;;19.06;67.19
76728;BME280;65652;53.132;18.026;2023-08-01T04:27:29;99697.77;;;19.03;67.31
76728;BME280;65652;53.132;18.026;2023-08-01T04:29:55;99697.61;;;19.00;67.61
76728;BME280;65652;53.132;18.026;2023-08-01T04:32:21;99695.67;;;18.99;67.79
76728;BME280;65652;53.132;18.026;2023-08-01T04:34:48;99696.97;;;18.96;67.82
76728;BME280;65652;53.132;18.026;2023-08-01T04:37:14;99693.77;;;18.94;67.92
76728;BME280;65652;53.132;18.026;2023-08-01T04:39:40;99690.08;;;18.92;68.06
76728;BME280;65652;53.132;18.026;2023-08-01T04:42:06;99694.29;;;18.90;68.21
76728;BME280;65652;53.132;18.026;2023-08-01T04:44:32;99690.38;;;18.87;68.35
76728;BME280;65652;53.132;18.026;2023-08-01T04:46:59;99691.46;;;18.85;68.56
76728;BME280;65652;53.132;18.026;2023-08-01T04:49:25;99687.45;;;18.84;68.72
76728;BME280;65652;53.132;18.026;2023-08-01T04:51:51;99684.16;;;18.84;68.90
76728;BME280;65652;53.132;18.026;2023-08-01T04:54:18;99688.45;;;18.83;69.05
76728;BME280;65652;53.132;18.026;2023-08-01T04:56:44;99690.80;;;18.80;69.30
76728;BME280;65652;53.132;18.026;2023-08-01T04:59:10;99687.60;;;18.77;69.50
76728;BME280;65652;53.132;18.026;2023-08-01T05:01:36;99686.61;;;18.74;69.78
76728;BME280;65652;53.132;18.026;2023-08-01T05:04:02;99687.42;;;18.72;69.97
76728;BME280;65652;53.132;18.026;2023-08-01T05:06:28;99684.64;;;18.68;70.24
76728;BME280;65652;53.132;18.026;2023-08-01T05:08:54;99683.90;;;18.65;70.40
76728;BME280;65652;53.132;18.026;2023-08-01T05:11:21;99684.48;;;18.64;70.69
76728;BME280;65652;53.132;18.026;2023-08-01T05:13:47;99684.40;;;18.61;70.91
76728;BME280;65652;53.132;18.026;2023-08-01T05:16:13;99683.48;;;18.57;71.05
76728;BME280;65652;53.132;18.026;2023-08-01T05:18:39;99684.19;;;18.54;71.24
76728;BME280;65652;53.132;18.026;2023-08-01T05:21:05;99683.79;;;18.52;71.39
76728;BME280;65652;53.132;18.026;2023-08-01T05:23:31;99679.33;;;18.50;71.57
76728;BME280;65652;53.132;18.026;2023-08-01T05:25:57;99676.00;;;18.48;71.94
76728;BME280;65652;53.132;18.026;2023-08-01T05:28:23;99670.91;;;18.49;72.54
76728;BME280;65652;53.132;18.026;2023-08-01T05:30:50;99665.42;;;18.53;72.41
76728;BME280;65652;53.132;18.026;2023-08-01T05:33:16;99662.41;;;18.54;72.31
76728;BME280;65652;53.132;18.026;2023-08-01T05:35:42;99665.10;;;18.54;72.57
76728;BME280;65652;53.132;18.026;2023-08-01T05:38:08;99656.58;;;18.58;73.04
76728;BME280;65652;53.132;18.026;2023-08-01T05:40:34;99659.55;;;18.66;73.03
76728;BME280;65652;53.132;18.026;2023-08-01T05:43:00;99659.33;;;18.70;72.97
76728;BME280;65652;53.132;18.026;2023-08-01T05:45:27;99655.37;;;18.70;72.84
76728;BME280;65652;53.132;18.026;2023-08-01T05:47:53;99654.75;;;18.71;73.15
76728;BME280;65652;53.132;18.026;2023-08-01T05:50:19;99649.92;;;18.67;73.52
76728;BME280;65652;53.132;18.026;2023-08-01T05:52:45;99652.94;;;18.63;73.31
76728;BME280;65652;53.132;18.026;2023-08-01T05:55:11;99648.36;;;18.62;73.36
76728;BME280;65652;53.132;18.026;2023-08-01T05:57:37;99646.47;;;18.62;73.60
76728;BME280;65652;53.132;18.026;2023-08-01T06:00:04;99644.98;;;18.60;73.78
76728;BME280;65652;53.132;18.026;2023-08-01T06:02:38;99639.33;;;18.59;73.64
76728;BME280;65652;53.132;18.026;2023-08-01T06:05:05;99637.67;;;18.60;73.74
76728;BME280;65652;53.132;18.026;2023-08-01T06:07:31;99632.69;;;18.60;73.76
76728;BME280;65652;53.132;18.026;2023-08-01T06:09:57;99637.88;;;18.61;73.78
76728;BME280;65652;53.132;18.026;2023-08-01T06:12:23;99638.88;;;18.60;73.80
76728;BME280;65652;53.132;18.026;2023-08-01T06:14:49;99644.48;;;18.60;73.99
76728;BME280;65652;53.132;18.026;2023-08-01T06:17:16;99643.13;;;18.59;74.00
76728;BME280;65652;53.132;18.026;2023-08-01T06:19:42;99648.79;;;18.57;73.98
76728;BME280;65652;53.132;18.026;2023-08-01T06:22:08;99644.65;;;18.56;74.35
76728;BME280;65652;53.132;18.026;2023-08-01T06:24:34;99644.28;;;18.57;74.49
76728;BME280;65652;53.132;18.026;2023-08-01T06:27:00;99638.84;;;18.55;74.29
76728;BME280;65652;53.132;18.026;2023-08-01T06:29:26;99630.09;;;18.56;74.34
76728;BME280;65652;53.132;18.026;2023-08-01T06:31:53;99629.58;;;18.61;74.44
76728;BME280;65652;53.132;18.026;2023-08-01T06:34:19;99629.33;;;18.63;74.38
76728;BME280;65652;53.132;18.026;2023-08-01T06:36:45;99625.66;;;18.65;74.45
76728;BME280;65652;53.132;18.026;2023-08-01T06:39:11;99629.73;;;18.64;74.52
76728;BME280;65652;53.132;18.026;2023-08-01T06:41:37;99625.91;;;18.59;74.75
76728;BME280;65652;53.132;18.026;2023-08-01T06:44:03;99620.02;;;18.58;74.57
76728;BME280;65652;53.132;18.026;2023-08-01T06:46:29;99620.77;;;18.58;74.89
76728;BME280;65652;53.132;18.026;2023-08-01T06:48:56;99623.20;;;18.56;75.09
76728;BME280;65652;53.132;18.026;2023-08-01T06:51:22;99630.13;;;18.57;75.10
76728;BME280;65652;53.132;18.026;2023-08-01T06:53:48;99620.51;;;18.58;75.22
76728;BME280;65652;53.132;18.026;2023-08-01T06:56:14;99617.99;;;18.60;75.18
76728;BME280;65652;53.132;18.026;2023-08-01T06:58:40;99611.29;;;18.64;75.24
76728;BME280;65652;53.132;18.026;2023-08-01T07:01:06;99609.71;;;18.68;75.13
76728;BME280;65652;53.132;18.026;2023-08-01T07:03:32;99607.63;;;18.70;75.18
76728;BME280;65652;53.132;18.026;2023-08-01T07:05:59;99608.83;;;18.75;75.15
76728;BME280;65652;53.132;18.026;2023-08-01T07:08:25;99602.77;;;18.82;75.33
76728;BME280;65652;53.132;18.026;2023-08-01T07:10:51;99599.02;;;18.84;75.29
76728;BME280;65652;53.132;18.026;2023-08-01T07:13:17;99602.47;;;18.86;75.37
76728;BME280;65652;53.132;18.026;2023-08-01T07:15:45;99596.88;;;18.88;75.28
76728;BME280;65652;53.132;18.026;2023-08-01T07:18:11;99596.81;;;18.87;75.17
76728;BME280;65652;53.132;18.026;2023-08-01T07:20:37;99587.48;;;18.88;75.17
76728;BME280;65652;53.132;18.026;2023-08-01T07:23:03;99584.75;;;18.97;75.28
76728;BME280;65652;53.132;18.026;2023-08-01T07:25:30;99580.45;;;19.05;75.27
76728;BME280;65652;53.132;18.026;2023-08-01T07:27:56;99582.64;;;19.07;75.16
76728;BME280;65652;53.132;18.026;2023-08-01T07:30:22;99584.20;;;19.09;75.27
76728;BME280;65652;53.132;18.026;2023-08-01T07:32:48;99582.21;;;19.09;75.48
76728;BME280;65652;53.132;18.026;2023-08-01T07:35:14;99575.74;;;19.08;75.31
76728;BME280;65652;53.132;18.026;2023-08-01T07:37:40;99571.20;;;19.07;75.27
76728;BME280;65652;53.132;18.026;2023-08-01T07:40:07;99574.44;;;19.11;75.26
76728;BME280;65652;53.132;18.026;2023-08-01T07:42:33;99572.69;;;19.14;75.28
76728;BME280;65652;53.132;18.026;2023-08-01T07:44:59;99570.35;;;19.18;75.30
76728;BME280;65652;53.132;18.026;2023-08-01T07:47:26;99567.16;;;19.20;75.34
76728;BME280;65652;53.132;18.026;2023-08-01T07:49:52;99567.12;;;19.21;75.32
76728;BME280;65652;53.132;18.026;2023-08-01T07:52:18;99568.09;;;19.18;75.41
76728;BME280;65652;53.132;18.026;2023-08-01T07:54:44;99568.63;;;19.15;75.54
76728;BME280;65652;53.132;18.026;2023-08-01T07:57:11;99566.30;;;19.11;75.81
76728;BME280;65652;53.132;18.026;2023-08-01T07:59:37;99564.27;;;19.06;76.04
76728;BME280;65652;53.132;18.026;2023-08-01T08:02:03;99565.09;;;19.01;76.11
76728;BME280;65652;53.132;18.026;2023-08-01T08:04:29;99562.61;;;18.98;76.22
76728;BME280;65652;53.132;18.026;2023-08-01T08:06:55;99565.50;;;19.00;76.10
76728;BME280;65652;53.132;18.026;2023-08-01T08:09:26;99560.80;;;18.96;76.17
76728;BME280;65652;53.132;18.026;2023-08-01T08:11:52;99558.55;;;18.95;76.54
76728;BME280;65652;53.132;18.026;2023-08-01T08:14:18;99559.55;;;18.92;76.17
76728;BME280;65652;53.132;18.026;2023-08-01T08:16:47;99555.61;;;18.94;76.40
76728;BME280;65652;53.132;18.026;2023-08-01T08:19:13;99555.89;;;18.97;76.47
76728;BME280;65652;53.132;18.026;2023-08-01T08:21:39;99555.08;;;18.94;76.31
76728;BME280;65652;53.132;18.026;2023-08-01T08:24:05;99548.39;;;18.93;76.62
76728;BME280;65652;53.132;18.026;2023-08-01T08:26:31;99551.98;;;18.93;76.54
76728;BME280;65652;53.132;18.026;2023-08-01T08:28:59;99551.41;;;18.93;76.37
76728;BME280;65652;53.132;18.026;2023-08-01T08:31:26;99545.55;;;18.91;76.72
76728;BME280;65652;53.132;18.026;2023-08-01T08:33:52;99544.84;;;18.94;76.79
76728;BME280;65652;53.132;18.026;2023-08-01T08:36:18;99543.60;;;18.92;76.90
76728;BME280;65652;53.132;18.026;2023-08-01T08:38:44;99542.84;;;18.89;76.64
76728;BME280;65652;53.132;18.026;2023-08-01T08:41:13;99539.02;;;18.85;77.09
76728;BME280;65652;53.132;18.026;2023-08-01T08:43:41;99540.10;;;18.80;76.94
76728;BME280;65652;53.132;18.026;2023-08-01T08:46:08;99538.67;;;18.81;77.00
76728;BME280;65652;53.132;18.026;2023-08-01T08:48:35;99534.48;;;18.81;77.36
76728;BME280;65652;53.132;18.026;2023-08-01T08:51:02;99534.15;;;18.82;77.21
76728;BME280;65652;53.132;18.026;2023-08-01T08:53:30;99529.63;;;18.88;77.25
76728;BME280;65652;53.132;18.026;2023-08-01T08:55:59;99523.48;;;18.93;77.18
76728;BME280;65652;53.132;18.026;2023-08-01T08:58:26;99522.41;;;19.02;77.29
76728;BME280;65652;53.132;18.026;2023-08-01T09:00:52;99515.96;;;19.08;76.93
76728;BME280;65652;53.132;18.026;2023-08-01T09:03:19;99515.91;;;19.20;76.84
76728;BME280;65652;53.132;18.026;2023-08-01T09:05:50;99513.53;;;19.37;76.58
76728;BME280;65652;53.132;18.026;2023-08-01T09:08:21;99510.57;;;19.58;76.40
76728;BME280;65652;53.132;18.026;2023-08-01T09:10:48;99504.72;;;19.76;75.84
76728;BME280;65652;53.132;18.026;2023-08-01T09:13:14;99500.98;;;19.90;75.55
76728;BME280;65652;53.132;18.026;2023-08-01T09:15:43;99491.59;;;20.08;75.56
76728;BME280;65652;53.132;18.026;2023-08-01T09:18:12;99485.02;;;20.28;75.09
76728;BME280;65652;53.132;18.026;2023-08-01T09:23:09;99481.24;;;20.72;74.11
76728;BME280;65652;53.132;18.026;2023-08-01T09:25:35;99481.80;;;20.86;72.70
76728;BME280;65652;53.132;18.026;2023-08-01T09:28:01;99481.90;;;20.96;72.39
76728;BME280;65652;53.132;18.026;2023-08-01T09:30:27;99476.69;;;21.09;72.54
76728;BME280;65652;53.132;18.026;2023-08-01T09:32:55;99472.83;;;21.18;72.06
76728;BME280;65652;53.132;18.026;2023-08-01T09:35:22;99474.05;;;21.22;71.46
76728;BME280;65652;53.132;18.026;2023-08-01T09:37:48;99467.83;;;21.27;71.53
76728;BME280;65652;53.132;18.026;2023-08-01T09:40:15;99471.92;;;21.31;70.53
76728;BME280;65652;53.132;18.026;2023-08-01T09:42:42;99469.67;;;21.27;70.55
76728;BME280;65652;53.132;18.026;2023-08-01T09:45:16;99473.34;;;21.20;70.03
76728;BME280;65652;53.132;18.026;2023-08-01T09:47:43;99461.92;;;21.05;70.04
76728;BME280;65652;53.132;18.026;2023-08-01T09:50:11;99461.86;;;20.95;70.53
76728;BME280;65652;53.132;18.026;2023-08-01T09:52:37;99457.71;;;20.89;70.47
76728;BME280;65652;53.132;18.026;2023-08-01T09:55:03;99462.13;;;20.82;70.49
76728;BME280;65652;53.132;18.026;2023-08-01T09:57:30;99453.51;;;20.74;70.66
76728;BME280;65652;53.132;18.026;2023-08-01T09:59:58;99449.70;;;20.71;70.94
76728;BME280;65652;53.132;18.026;2023-08-01T10:02:25;99447.36;;;20.70;70.69
76728;BME280;65652;53.132;18.026;2023-08-01T10:04:58;99447.98;;;20.68;70.91
76728;BME280;65652;53.132;18.026;2023-08-01T10:07:29;99440.62;;;20.66;70.98
76728;BME280;65652;53.132;18.026;2023-08-01T10:09:58;99443.20;;;20.61;70.65
76728;BME280;65652;53.132;18.026;2023-08-01T10:12:27;99443.13;;;20.55;70.68
76728;BME280;65652;53.132;18.026;2023-08-01T10:14:54;99440.59;;;20.49;71.04
76728;BME280;65652;53.132;18.026;2023-08-01T10:17:21;99438.79;;;20.44;71.23
76728;BME280;65652;53.132;18.026;2023-08-01T10:19:49;99445.13;;;20.44;71.23
76728;BME280;65652;53.132;18.026;2023-08-01T10:22:18;99436.33;;;20.37;71.24
76728;BME280;65652;53.132;18.026;2023-08-01T10:24:45;99437.98;;;20.26;71.51
76728;BME280;65652;53.132;18.026;2023-08-01T10:27:14;99438.84;;;20.18;72.03
76728;BME280;65652;53.132;18.026;2023-08-01T10:29:41;99433.98;;;20.12;72.53
76728;BME280;65652;53.132;18.026;2023-08-01T10:32:08;99433.91;;;20.09;72.56
76728;BME280;65652;53.132;18.026;2023-08-01T10:34:35;99428.50;;;20.09;72.75
76728;BME280;65652;53.132;18.026;2023-08-01T10:37:02;99419.19;;;20.14;72.91
76728;BME280;65652;53.132;18.026;2023-08-01T10:39:28;99410.42;;;20.23;72.88
76728;BME280;65652;53.132;18.026;2023-08-01T10:42:02;99406.20;;;20.36;73.14
76728;BME280;65652;53.132;18.026;2023-08-01T10:44:29;99408.44;;;20.46;72.67
76728;BME280;65652;53.132;18.026;2023-08-01T10:47:03;99399.17;;;20.51;72.64
76728;BME280;65652;53.132;18.026;2023-08-01T10:49:34;99394.79;;;20.57;72.66
76728;BME280;65652;53.132;18.026;2023-08-01T10:52:23;99384.16;;;20.64;72.64
76728;BME280;65652;53.132;18.026;2023-08-01T10:55:00;99380.25;;;20.68;72.55
76728;BME280;65652;53.132;18.026;2023-08-01T10:57:28;99372.77;;;20.67;72.48
76728;BME280;65652;53.132;18.026;2023-08-01T10:59:58;99373.20;;;20.64;72.54
76728;BME280;65652;53.132;18.026;2023-08-01T11:02:26;99372.65;;;20.58;72.67
76728;BME280;65652;53.132;18.026;2023-08-01T11:05:00;99370.57;;;20.57;72.89
76728;BME280;65652;53.132;18.026;2023-08-01T11:07:27;99368.89;;;20.52;73.09
76728;BME280;65652;53.132;18.026;2023-08-01T11:10:13;99367.00;;;20.46;73.56
76728;BME280;65652;53.132;18.026;2023-08-01T11:12:42;99365.20;;;20.41;73.69
76728;BME280;65652;53.132;18.026;2023-08-01T11:15:11;99363.95;;;20.42;73.72
76728;BME280;65652;53.132;18.026;2023-08-01T11:17:42;99362.61;;;20.43;73.47
76728;BME280;65652;53.132;18.026;2023-08-01T11:20:10;99359.71;;;20.41;73.33
76728;BME280;65652;53.132;18.026;2023-08-01T11:22:38;99358.24;;;20.39;73.36
76728;BME280;65652;53.132;18.026;2023-08-01T11:25:14;99354.84;;;20.42;73.19
76728;BME280;65652;53.132;18.026;2023-08-01T11:27:40;99354.19;;;20.42;73.73
76728;BME280;65652;53.132;18.026;2023-08-01T11:30:07;99358.57;;;20.39;73.98
76728;BME280;65652;53.132;18.026;2023-08-01T11:32:34;99357.50;;;20.33;74.19
76728;BME280;65652;53.132;18.026;2023-08-01T11:35:02;99352.14;;;20.18;74.41
76728;BME280;65652;53.132;18.026;2023-08-01T11:37:29;99361.33;;;20.07;74.89
76728;BME280;65652;53.132;18.026;2023-08-01T11:39:56;99361.09;;;19.94;75.50
76728;BME280;65652;53.132;18.026;2023-08-01T11:42:23;99368.45;;;19.81;76.40
76728;BME280;65652;53.132;18.026;2023-08-01T11:44:49;99360.24;;;19.71;76.77
76728;BME280;65652;53.132;18.026;2023-08-01T11:47:17;99357.45;;;19.67;76.65
76728;BME280;65652;53.132;18.026;2023-08-01T11:49:48;99358.29;;;19.69;77.15
76728;BME280;65652;53.132;18.026;2023-08-01T11:52:24;99352.77;;;19.68;77.37
76728;BME280;65652;53.132;18.026;2023-08-01T11:54:51;99351.02;;;19.66;77.72
76728;BME280;65652;53.132;18.026;2023-08-01T11:57:17;99342.65;;;19.67;78.00
76728;BME280;65652;53.132;18.026;2023-08-01T11:59:52;99341.87;;;19.70;77.89
76728;BME280;65652;53.132;18.026;2023-08-01T12:04:49;99337.66;;;19.65;78.08
76728;BME280;65652;53.132;18.026;2023-08-01T12:07:15;99331.82;;;19.70;78.47
76728;BME280;65652;53.132;18.026;2023-08-01T12:09:42;99331.80;;;19.78;78.20
76728;BME280;65652;53.132;18.026;2023-08-01T12:12:09;99324.17;;;19.86;78.53
76728;BME280;65652;53.132;18.026;2023-08-01T12:14:41;99322.38;;;19.96;78.23
76728;BME280;65652;53.132;18.026;2023-08-01T12:17:08;99325.45;;;20.07;77.98
76728;BME280;65652;53.132;18.026;2023-08-01T12:19:34;99322.70;;;20.14;77.81
76728;BME280;65652;53.132;18.026;2023-08-01T12:22:00;99318.35;;;20.24;77.65
76728;BME280;65652;53.132;18.026;2023-08-01T12:24:26;99317.67;;;20.39;77.35
76728;BME280;65652;53.132;18.026;2023-08-01T12:26:52;99313.34;;;20.52;76.74
76728;BME280;65652;53.132;18.026;2023-08-01T12:29:18;99312.38;;;20.60;76.42
76728;BME280;65652;53.132;18.026;2023-08-01T12:31:45;99310.22;;;20.66;76.66
76728;BME280;65652;53.132;18.026;2023-08-01T12:34:11;99307.90;;;20.74;76.45
76728;BME280;65652;53.132;18.026;2023-08-01T12:36:38;99302.38;;;20.78;76.13
76728;BME280;65652;53.132;18.026;2023-08-01T12:39:04;99301.67;;;20.73;76.20
76728;BME280;65652;53.132;18.026;2023-08-01T12:41:37;99296.67;;;20.67;76.23
76728;BME280;65652;53.132;18.026;2023-08-01T12:44:04;99293.36;;;20.64;76.31
76728;BME280;65652;53.132;18.026;2023-08-01T12:46:31;99296.35;;;20.66;76.36
76728;BME280;65652;53.132;18.026;2023-08-01T12:48:57;99296.88;;;20.67;76.29
76728;BME280;65652;53.132;18.026;2023-08-01T12:51:23;99297.77;;;20.72;75.98
76728;BME280;65652;53.132;18.026;2023-08-01T12:53:49;99289.28;;;20.73;75.84